Time;durP1;ratioP1;P1;durP2;ratioP2;P2;SDS_P1;SDS_P2;PMS_P1;PMS_P2;Temp;Humidity;BMP_temperature;BMP_pressure;BME280_temperature;BME280_humidity;BME280_pressure;Samples;Min_cycle;Max_cycle;Signal;HPM_P1;HPM_P2
2021/07/15 00:01:25;;;;;;;0.50;0.50;;;16.40;99.90;;;;;;4888330;29;23750;-88
2021/07/15 00:03:53;;;;;;;0.80;0.53;;;16.40;99.90;;;;;;4876793;29;20515;-88
2021/07/15 00:06:19;;;;;;;0.50;0.40;;;16.40;99.90;;;;;;4889199;29;20473;-89
2021/07/15 00:08:45;;;;;;;2.10;0.60;;;16.40;99.90;;;;;;4891245;29;20481;-88
2021/07/15 00:11:13;;;;;;;1.17;0.60;;;16.40;99.90;;;;;;4892176;29;22996;-89
2021/07/15 00:13:39;;;;;;;1.47;0.50;;;16.30;99.90;;;;;;4889249;29;20463;-89
2021/07/15 00:16:09;;;;;;;2.20;0.60;;;16.30;99.90;;;;;;4887473;29;20491;-91
2021/07/15 00:18:39;;;;;;;0.50;0.50;;;16.30;99.90;;;;;;4891409;29;20622;-89
2021/07/15 00:21:07;;;;;;;2.47;0.50;;;16.40;99.90;;;;;;4877771;29;21277;-89
2021/07/15 00:23:35;;;;;;;0.77;0.40;;;16.30;99.90;;;;;;4890182;29;20464;-89
2021/07/15 00:26:04;;;;;;;0.53;0.43;;;16.30;99.90;;;;;;4875378;29;20465;-88
2021/07/15 00:28:31;;;;;;;0.50;0.50;;;16.30;99.90;;;;;;4891366;29;20975;-88
2021/07/15 00:30:57;;;;;;;1.20;0.50;;;16.20;99.90;;;;;;4889209;29;20448;-88
2021/07/15 00:33:23;;;;;;;0.97;0.50;;;16.20;99.90;;;;;;4890218;29;20879;-88
2021/07/15 00:35:49;;;;;;;0.40;0.40;;;16.10;99.90;;;;;;4895799;29;20483;-87
2021/07/15 00:38:15;;;;;;;0.50;0.40;;;16.00;99.90;;;;;;4888539;29;20553;-87
2021/07/15 00:40:41;;;;;;;1.13;0.37;;;15.90;99.90;;;;;;4887560;29;20481;-88
2021/07/15 00:43:07;;;;;;;0.90;0.40;;;15.90;99.90;;;;;;4893087;29;20523;-88
2021/07/15 00:45:33;;;;;;;1.00;0.30;;;15.90;99.90;;;;;;4895018;29;20279;-88
2021/07/15 00:47:59;;;;;;;0.97;0.50;;;15.80;99.90;;;;;;4876441;29;20463;-88
2021/07/15 00:50:26;;;;;;;0.83;0.53;;;15.80;99.90;;;;;;4894439;29;21739;-88
2021/07/15 00:52:57;;;;;;;1.17;0.50;;;15.70;99.90;;;;;;4871596;29;20489;-88
2021/07/15 00:55:32;;;;;;;0.40;0.40;;;15.80;99.90;;;;;;4879570;29;20510;-89
2021/07/15 00:57:59;;;;;;;0.50;0.50;;;15.80;99.90;;;;;;4873831;29;20463;-88
2021/07/15 01:00:44;;;;;;;0.93;0.70;;;15.70;99.90;;;;;;4876445;29;20596;-88
2021/07/15 01:03:29;;;;;;;1.57;0.47;;;15.60;99.90;;;;;;4870762;29;20473;-88
2021/07/15 01:06:00;;;;;;;0.40;0.40;;;15.60;99.90;;;;;;4871929;29;21794;-88
2021/07/15 01:08:32;;;;;;;0.40;0.40;;;15.50;99.90;;;;;;4889898;29;20512;-89
2021/07/15 01:11:27;;;;;;;0.50;0.43;;;15.40;99.90;;;;;;4873864;29;20467;-90
2021/07/15 01:14:11;;;;;;;0.50;0.50;;;15.30;99.90;;;;;;4847390;29;20472;-88
2021/07/15 01:16:45;;;;;;;2.10;0.60;;;15.20;99.90;;;;;;4882918;29;20842;-89
2021/07/15 01:19:29;;;;;;;1.60;0.50;;;15.20;99.90;;;;;;4895181;29;20523;-88
2021/07/15 01:22:10;;;;;;;0.30;0.30;;;15.20;99.90;;;;;;4875797;29;20497;-89
2021/07/15 01:24:57;;;;;;;0.70;0.50;;;15.20;99.90;;;;;;4878925;29;20469;-87
2021/07/15 01:27:58;;;;;;;0.30;0.30;;;15.10;99.90;;;;;;4891090;29;23677;-89
2021/07/15 01:30:39;;;;;;;0.93;0.47;;;15.10;99.90;;;;;;4871790;29;20966;-88
2021/07/15 01:33:33;;;;;;;0.43;0.40;;;15.00;99.90;;;;;;4878346;29;20444;-88
2021/07/15 01:36:03;;;;;;;0.30;0.30;;;15.00;99.90;;;;;;4873762;29;20608;-88
2021/07/15 01:38:39;;;;;;;1.23;0.30;;;15.00;99.90;;;;;;4874450;29;20505;-88
2021/07/15 01:41:13;;;;;;;0.40;0.40;;;14.90;99.90;;;;;;4890941;29;20477;-92
2021/07/15 01:43:42;;;;;;;0.67;0.50;;;15.00;99.90;;;;;;4872757;29;20494;-87
2021/07/15 01:46:09;;;;;;;0.30;0.30;;;15.00;99.90;;;;;;4892866;29;20597;-88
2021/07/15 01:48:41;;;;;;;0.50;0.50;;;15.00;99.90;;;;;;4873332;29;20490;-88
2021/07/15 01:51:10;;;;;;;0.33;0.33;;;15.00;99.90;;;;;;4886595;29;20469;-87
2021/07/15 01:53:36;;;;;;;1.67;0.30;;;15.00;99.90;;;;;;4887061;29;20535;-87
2021/07/15 01:56:03;;;;;;;0.37;0.37;;;14.90;99.90;;;;;;4893125;29;20488;-87
2021/07/15 01:58:31;;;;;;;0.83;0.30;;;14.80;99.90;;;;;;4876615;29;21029;-86
2021/07/15 02:00:59;;;;;;;0.60;0.30;;;14.70;99.90;;;;;;4893255;29;20452;-87
2021/07/15 02:03:28;;;;;;;0.87;0.30;;;14.60;99.90;;;;;;4876714;29;20515;-87
2021/07/15 02:05:54;;;;;;;0.50;0.20;;;14.60;99.90;;;;;;4892915;29;20469;-87
2021/07/15 02:08:22;;;;;;;0.37;0.33;;;14.60;99.90;;;;;;4888749;29;21053;-88
2021/07/15 02:10:48;;;;;;;0.30;0.30;;;14.60;99.90;;;;;;4885150;29;20460;-88
2021/07/15 02:13:14;;;;;;;0.37;0.23;;;14.60;99.90;;;;;;4894800;29;20464;-88
2021/07/15 02:15:41;;;;;;;0.40;0.40;;;14.50;99.90;;;;;;4874584;29;20500;-87
2021/07/15 02:18:17;;;;;;;0.63;0.30;;;14.50;99.90;;;;;;4876823;29;20969;-88
2021/07/15 02:20:50;;;;;;;0.40;0.30;;;14.40;99.90;;;;;;4873871;29;20624;-88
2021/07/15 02:23:16;;;;;;;0.40;0.30;;;14.40;99.90;;;;;;4866751;29;20461;-87
2021/07/15 02:25:46;;;;;;;0.70;0.30;;;14.40;99.90;;;;;;4888671;29;20452;-87
2021/07/15 02:28:15;;;;;;;1.53;0.30;;;14.40;99.90;;;;;;4887389;29;20488;-87
2021/07/15 02:30:45;;;;;;;0.30;0.20;;;14.40;99.90;;;;;;4892797;29;20887;-87
2021/07/15 02:33:13;;;;;;;0.30;0.20;;;14.40;99.90;;;;;;4891264;29;20496;-86
2021/07/15 02:35:45;;;;;;;0.40;0.20;;;14.30;99.90;;;;;;4888700;29;20520;-87
2021/07/15 02:38:14;;;;;;;0.30;0.27;;;14.30;99.90;;;;;;4885929;29;20611;-87
2021/07/15 02:40:40;;;;;;;0.93;0.23;;;14.30;99.90;;;;;;4884562;29;21148;-88
2021/07/15 02:43:07;;;;;;;0.30;0.20;;;14.30;99.90;;;;;;4889376;29;20463;-88
2021/07/15 02:45:35;;;;;;;0.40;0.23;;;14.30;99.90;;;;;;4892640;29;20547;-88
2021/07/15 02:48:12;;;;;;;0.40;0.30;;;14.30;99.90;;;;;;4884372;29;20812;-88
2021/07/15 02:50:39;;;;;;;4.00;0.40;;;14.30;99.90;;;;;;4884230;29;21869;-88
2021/07/15 02:53:05;;;;;;;3.27;0.60;;;14.30;99.90;;;;;;4891591;29;20460;-88
2021/07/15 02:55:31;;;;;;;0.40;0.33;;;14.40;99.90;;;;;;4874561;29;20491;-88
2021/07/15 02:58:05;;;;;;;0.83;0.47;;;14.40;99.90;;;;;;4888754;29;20453;-88
2021/07/15 03:00:44;;;;;;;0.40;0.30;;;14.50;99.90;;;;;;4876090;29;20440;-88
2021/07/15 03:03:45;;;;;;;0.40;0.33;;;14.60;99.90;;;;;;4890194;29;20451;-88
2021/07/15 03:06:14;;;;;;;0.50;0.20;;;14.70;99.90;;;;;;4890551;29;21065;-88
2021/07/15 03:08:50;;;;;;;0.40;0.30;;;14.70;99.90;;;;;;4874162;29;20448;-88
2021/07/15 03:11:19;;;;;;;0.60;0.30;;;14.80;99.90;;;;;;4875048;29;20460;-87
2021/07/15 03:13:46;;;;;;;1.50;0.30;;;14.70;99.90;;;;;;4887085;29;20493;-88
2021/07/15 03:19:19;;;;;;;0.30;0.30;;;14.60;99.90;;;;;;4880003;29;20658;-88
2021/07/15 03:21:54;;;;;;;1.17;0.30;;;14.60;99.90;;;;;;4871670;29;20995;-89
2021/07/15 03:24:21;;;;;;;0.30;0.30;;;14.60;99.90;;;;;;4874983;29;20535;-88
2021/07/15 03:26:49;;;;;;;0.50;0.30;;;14.60;99.90;;;;;;4874586;29;20457;-88
2021/07/15 03:29:16;;;;;;;0.40;0.30;;;14.60;99.90;;;;;;4874870;29;20475;-88
2021/07/15 03:31:46;;;;;;;1.83;0.30;;;14.60;99.90;;;;;;4872979;29;20461;-88
2021/07/15 03:34:14;;;;;;;0.50;0.30;;;14.60;99.90;;;;;;4875578;29;20523;-88
2021/07/15 03:36:48;;;;;;;2.43;0.40;;;14.60;99.90;;;;;;4873548;29;20497;-87
2021/07/15 03:39:15;;;;;;;0.87;0.40;;;14.60;99.90;;;;;;4882544;29;20464;-87
2021/07/15 03:41:42;;;;;;;0.30;0.23;;;14.60;99.90;;;;;;4873010;29;20456;-87
2021/07/15 03:44:13;;;;;;;0.57;0.43;;;14.60;99.90;;;;;;4890047;29;21286;-87
2021/07/15 03:46:41;;;;;;;1.07;0.27;;;14.70;99.90;;;;;;4890532;29;20448;-87
2021/07/15 03:49:08;;;;;;;0.87;0.20;;;14.70;99.90;;;;;;4884330;29;20459;-87
2021/07/15 03:51:36;;;;;;;0.40;0.40;;;14.70;99.90;;;;;;4874434;29;20460;-87
2021/07/15 03:54:04;;;;;;;0.77;0.20;;;14.70;99.90;;;;;;4871019;29;20448;-87
2021/07/15 03:56:33;;;;;;;1.17;0.20;;;14.70;99.90;;;;;;4868909;29;20495;-87
2021/07/15 03:59:01;;;;;;;0.30;0.20;;;14.80;99.90;;;;;;4891120;29;20460;-87
2021/07/15 04:01:40;;;;;;;1.03;0.30;;;14.80;99.90;;;;;;4883010;29;20471;-87
2021/07/15 04:04:10;;;;;;;0.87;0.30;;;14.70;99.90;;;;;;4889461;29;20964;-85
2021/07/15 04:06:42;;;;;;;0.50;0.40;;;14.70;99.90;;;;;;4891138;29;20464;-88
2021/07/15 04:09:12;;;;;;;0.33;0.20;;;14.80;99.90;;;;;;4893801;29;20459;-87
2021/07/15 04:11:45;;;;;;;0.97;0.30;;;14.90;99.90;;;;;;4876237;29;20587;-87
2021/07/15 04:14:18;;;;;;;0.30;0.20;;;14.90;99.90;;;;;;4879020;29;20469;-89
2021/07/15 04:17:08;;;;;;;1.30;0.30;;;14.90;99.90;;;;;;4877951;29;20483;-89
2021/07/15 04:19:41;;;;;;;0.30;0.20;;;14.90;99.90;;;;;;4891588;29;20611;-88
2021/07/15 04:22:11;;;;;;;0.57;0.27;;;15.00;99.90;;;;;;4892350;29;20491;-89
2021/07/15 04:24:39;;;;;;;0.20;0.20;;;15.00;99.90;;;;;;4877439;29;20882;-88
2021/07/15 04:27:07;;;;;;;0.60;0.23;;;15.10;99.90;;;;;;4879669;29;21011;-89
2021/07/15 04:32:30;;;;;;;0.70;0.30;;;15.20;99.90;;;;;;4895205;29;20511;-88
2021/07/15 04:34:58;;;;;;;0.63;0.20;;;15.30;99.90;;;;;;4890673;29;20503;-88
2021/07/15 04:37:27;;;;;;;1.07;0.30;;;15.50;99.90;;;;;;4879421;29;20486;-88
2021/07/15 04:39:57;;;;;;;0.87;0.20;;;15.50;99.90;;;;;;4877785;29;20460;-88
2021/07/15 04:42:26;;;;;;;0.40;0.20;;;15.50;99.90;;;;;;4864079;29;20467;-88
2021/07/15 04:44:55;;;;;;;1.63;0.40;;;15.50;99.90;;;;;;4878676;29;20478;-87
2021/07/15 04:47:24;;;;;;;0.30;0.20;;;15.60;99.90;;;;;;4878708;29;20461;-88
2021/07/15 04:50:14;;;;;;;1.27;0.53;;;15.60;99.90;;;;;;4879692;29;20539;-89
2021/07/15 04:52:48;;;;;;;0.43;0.30;;;15.70;99.90;;;;;;4894257;29;20487;-88
2021/07/15 04:55:21;;;;;;;1.37;0.30;;;15.80;99.90;;;;;;4877706;29;21094;-88
2021/07/15 04:57:53;;;;;;;0.80;0.30;;;16.00;99.90;;;;;;4892327;29;20452;-88
2021/07/15 05:03:21;;;;;;;0.63;0.40;;;16.30;99.90;;;;;;4893822;29;21054;-90
2021/07/15 05:05:54;;;;;;;1.27;0.40;;;16.30;99.90;;;;;;4896109;29;20556;-90
2021/07/15 05:08:20;;;;;;;0.60;0.30;;;16.10;99.90;;;;;;4877145;29;21209;-88
2021/07/15 05:10:46;;;;;;;2.57;0.30;;;16.00;99.90;;;;;;4893627;29;20479;-89
2021/07/15 05:13:12;;;;;;;0.83;0.30;;;16.00;99.90;;;;;;4879402;29;20201;-86
2021/07/15 05:15:38;;;;;;;1.60;0.40;;;16.00;99.90;;;;;;4899793;29;20235;-87
2021/07/15 05:18:04;;;;;;;0.70;0.23;;;15.90;99.90;;;;;;4899233;29;20936;-90
2021/07/15 05:20:30;;;;;;;0.40;0.30;;;15.90;99.90;;;;;;4898095;29;20216;-88
2021/07/15 05:22:56;;;;;;;1.13;0.30;;;15.90;99.90;;;;;;4895866;29;20201;-89
2021/07/15 05:25:21;;;;;;;0.60;0.60;;;15.80;99.90;;;;;;4896466;29;20608;-87
2021/07/15 05:27:47;;;;;;;0.60;0.30;;;15.90;99.90;;;;;;4884180;29;20232;-88
2021/07/15 05:30:13;;;;;;;0.60;0.40;;;16.00;99.90;;;;;;4879195;29;20216;-89
2021/07/15 05:32:42;;;;;;;1.27;0.30;;;16.00;99.90;;;;;;4888181;29;20218;-85
2021/07/15 05:35:12;;;;;;;0.63;0.20;;;16.10;99.90;;;;;;4895191;29;21140;-88
2021/07/15 05:37:40;;;;;;;0.73;0.27;;;16.10;99.90;;;;;;4895836;29;20491;-86
2021/07/15 05:40:07;;;;;;;1.00;0.37;;;16.00;99.90;;;;;;4878783;29;20475;-87
2021/07/15 05:42:33;;;;;;;1.53;0.40;;;16.10;99.90;;;;;;4883356;29;20456;-88
2021/07/15 05:44:59;;;;;;;5.87;0.70;;;16.10;99.90;;;;;;4879716;29;20986;-89
2021/07/15 05:47:34;;;;;;;1.23;0.30;;;16.10;99.90;;;;;;4892533;29;20213;-90
2021/07/15 05:50:00;;;;;;;3.33;0.53;;;16.20;99.90;;;;;;4878630;29;20449;-86
2021/07/15 05:52:26;;;;;;;0.97;0.40;;;16.20;99.90;;;;;;4894733;29;20457;-87
2021/07/15 05:54:56;;;;;;;1.43;0.60;;;16.30;99.90;;;;;;4882498;29;20254;-89
2021/07/15 05:57:23;;;;;;;1.53;0.40;;;16.30;99.90;;;;;;4881368;29;20192;-88
2021/07/15 05:59:48;;;;;;;1.80;0.40;;;16.20;99.90;;;;;;4877987;29;20544;-88
2021/07/15 06:02:17;;;;;;;1.23;0.27;;;16.20;99.90;;;;;;4898882;29;20886;-86
2021/07/15 06:04:43;;;;;;;1.23;0.30;;;16.20;99.90;;;;;;4883074;29;20300;-88
2021/07/15 06:07:09;;;;;;;2.00;0.40;;;16.20;99.90;;;;;;4876940;29;20515;-88
2021/07/15 06:09:35;;;;;;;0.30;0.20;;;16.30;99.90;;;;;;4879619;29;20552;-89
2021/07/15 06:12:04;;;;;;;3.33;0.30;;;16.40;99.90;;;;;;4879974;28;20535;-89
2021/07/15 06:14:30;;;;;;;0.33;0.30;;;16.40;99.90;;;;;;4877866;29;20440;-90
2021/07/15 06:16:56;;;;;;;0.30;0.20;;;16.30;99.90;;;;;;4880548;29;20476;-88
2021/07/15 06:19:22;;;;;;;0.63;0.40;;;16.40;99.90;;;;;;4881364;29;20448;-90
2021/07/15 06:21:47;;;;;;;0.40;0.40;;;16.40;99.90;;;;;;4879486;29;20471;-88
2021/07/15 06:24:14;;;;;;;0.80;0.23;;;16.40;99.90;;;;;;4879265;29;20235;-91
2021/07/15 06:26:39;;;;;;;0.43;0.30;;;16.40;99.90;;;;;;4867703;29;20666;-88
2021/07/15 06:29:05;;;;;;;0.43;0.27;;;16.30;99.90;;;;;;4879048;29;20461;-90
2021/07/15 06:31:32;;;;;;;0.40;0.30;;;16.40;99.90;;;;;;4881433;29;20195;-91
2021/07/15 06:34:00;;;;;;;0.80;0.30;;;16.50;99.90;;;;;;4897981;29;20694;-93
2021/07/15 06:36:30;;;;;;;1.10;0.40;;;16.50;99.90;;;;;;4878289;29;20491;-90
2021/07/15 06:38:56;;;;;;;0.40;0.30;;;16.50;99.90;;;;;;4879137;29;20465;-88
2021/07/15 06:41:25;;;;;;;0.57;0.30;;;16.60;99.90;;;;;;4894988;29;20453;-89
2021/07/15 06:43:53;;;;;;;0.30;0.20;;;16.70;99.90;;;;;;4883243;29;20492;-90
2021/07/15 06:46:22;;;;;;;0.40;0.40;;;16.80;99.90;;;;;;4877345;29;20765;-89
2021/07/15 06:48:49;;;;;;;1.33;0.50;;;16.90;99.90;;;;;;4891286;29;20931;-88
2021/07/15 06:51:19;;;;;;;0.73;0.20;;;17.00;99.90;;;;;;4890988;29;20444;-88
2021/07/15 06:53:46;;;;;;;1.07;0.40;;;17.40;99.90;;;;;;4881137;29;20468;-90
2021/07/15 06:56:14;;;;;;;0.67;0.20;;;17.30;99.90;;;;;;4883189;29;20484;-94
2021/07/15 06:58:40;;;;;;;0.40;0.20;;;17.50;99.90;;;;;;4870096;29;20452;-94
2021/07/15 07:01:08;;;;;;;0.60;0.30;;;17.60;99.90;;;;;;4881374;29;20460;-95
2021/07/15 07:03:37;;;;;;;0.63;0.20;;;17.70;99.90;;;;;;4885129;29;20263;-91
2021/07/15 07:06:03;;;;;;;2.10;0.60;;;17.80;99.90;;;;;;4880999;29;20456;-93
2021/07/15 07:08:30;;;;;;;0.30;0.20;;;17.90;99.90;;;;;;4883390;29;20543;-90
2021/07/15 07:10:58;;;;;;;1.90;0.30;;;17.80;99.90;;;;;;4891269;29;20908;-90
2021/07/15 07:13:24;;;;;;;2.80;0.37;;;17.70;99.90;;;;;;4878615;29;20444;-91
2021/07/15 07:15:50;;;;;;;0.77;0.23;;;17.80;99.90;;;;;;4888827;29;20842;-94
2021/07/15 07:18:16;;;;;;;2.27;0.30;;;17.80;99.90;;;;;;4879314;29;20627;-94
2021/07/15 07:20:42;;;;;;;0.40;0.30;;;17.70;99.90;;;;;;4884730;29;20523;-93
2021/07/15 07:23:13;;;;;;;1.17;0.20;;;17.70;99.90;;;;;;4895580;29;20247;-94
2021/07/15 07:25:41;;;;;;;0.30;0.20;;;17.70;99.90;;;;;;4891788;29;20196;-93
2021/07/15 07:28:07;;;;;;;1.03;0.40;;;17.40;99.90;;;;;;4887220;29;20671;-95
2021/07/15 07:30:35;;;;;;;0.30;0.30;;;17.20;99.90;;;;;;4883674;29;20828;-94
2021/07/15 07:33:02;;;;;;;0.40;0.27;;;17.40;99.90;;;;;;4878972;29;20500;-93
2021/07/15 07:35:27;;;;;;;1.07;0.20;;;17.80;99.90;;;;;;4884714;29;20224;-93
2021/07/15 07:37:53;;;;;;;0.50;0.20;;;18.20;99.90;;;;;;4885546;29;20567;-94
2021/07/15 07:40:23;;;;;;;0.60;0.30;;;18.60;99.90;;;;;;4883916;29;20188;-91
2021/07/15 07:42:49;;;;;;;0.60;0.30;;;18.80;99.90;;;;;;4887094;29;20197;-94
2021/07/15 07:45:17;;;;;;;0.47;0.20;;;18.90;99.90;;;;;;4870472;29;20984;-92
2021/07/15 07:47:42;;;;;;;1.13;0.30;;;19.00;99.90;;;;;;4891475;29;20192;-94
2021/07/15 07:50:14;;;;;;;0.60;0.30;;;18.60;99.90;;;;;;4904502;29;20454;-94
2021/07/15 07:52:40;;;;;;;1.07;0.23;;;18.20;99.90;;;;;;4885342;29;20219;-93
2021/07/15 07:55:08;;;;;;;0.40;0.30;;;18.00;99.90;;;;;;4883224;29;20523;-92
2021/07/15 07:57:35;;;;;;;0.50;0.40;;;18.20;99.90;;;;;;4884085;29;20461;-94
2021/07/15 08:00:04;;;;;;;0.80;0.47;;;18.20;99.90;;;;;;4883548;29;21011;-92
2021/07/15 08:02:31;;;;;;;0.50;0.40;;;18.00;99.90;;;;;;4900134;29;20452;-95
2021/07/15 08:04:59;;;;;;;2.03;0.60;;;17.90;99.90;;;;;;4884466;29;20448;-95
2021/07/15 08:07:34;;;;;;;0.43;0.20;;;18.00;99.90;;;;;;4904524;29;20534;-95
2021/07/15 08:10:03;;;;;;;1.00;0.40;;;17.90;99.90;;;;;;4885608;29;20470;-96
2021/07/15 08:12:34;;;;;;;0.30;0.20;;;18.00;99.90;;;;;;4871420;29;21043;-93
2021/07/15 08:15:06;;;;;;;0.97;0.30;;;18.10;99.90;;;;;;4888516;29;20451;-91
2021/07/15 08:22:43;;;;;;;1.23;0.80;;;18.00;99.90;;;;;;4882272;29;20539;-90
2021/07/15 08:25:11;;;;;;;0.33;0.30;;;17.80;99.90;;;;;;4869883;29;21003;-91
2021/07/15 08:27:37;;;;;;;0.77;0.33;;;18.20;99.90;;;;;;4868412;29;20500;-93
2021/07/15 08:30:07;;;;;;;0.30;0.30;;;18.70;99.90;;;;;;4870538;29;20469;-93
2021/07/15 08:32:37;;;;;;;0.40;0.30;;;19.00;99.90;;;;;;4867130;29;20204;-91
2021/07/15 08:35:08;;;;;;;0.50;0.40;;;19.00;99.90;;;;;;4873450;29;20468;-91
2021/07/15 08:37:34;;;;;;;1.40;0.40;;;19.10;99.90;;;;;;4870625;29;20598;-90
2021/07/15 08:40:04;;;;;;;0.30;0.30;;;18.60;99.90;;;;;;4869014;29;20481;-93
2021/07/15 08:42:33;;;;;;;0.97;0.40;;;18.00;99.90;;;;;;4870778;29;20469;-90
2021/07/15 08:45:07;;;;;;;0.60;0.30;;;18.30;99.90;;;;;;4870128;29;20940;-91
2021/07/15 08:47:39;;;;;;;1.47;0.37;;;18.50;99.90;;;;;;4872730;29;20481;-86
2021/07/15 08:50:08;;;;;;;0.57;0.30;;;18.40;99.90;;;;;;4871429;29;20831;-91
2021/07/15 08:52:40;;;;;;;1.70;0.37;;;18.10;99.90;;;;;;4884533;29;20445;-89
2021/07/15 08:55:22;;;;;;;3.87;0.53;;;17.80;99.90;;;;;;4884843;29;20473;-88
2021/07/15 08:57:48;;;;;;;4.10;0.30;;;17.60;99.90;;;;;;4883284;29;20476;-88
2021/07/15 09:00:16;;;;;;;0.50;0.47;;;17.60;99.90;;;;;;4866429;29;21950;-88
2021/07/15 09:02:43;;;;;;;1.13;0.50;;;17.80;99.90;;;;;;4871861;29;20192;-88
2021/07/15 09:05:10;;;;;;;1.47;0.40;;;17.80;99.90;;;;;;4863134;29;20454;-88
2021/07/15 09:07:38;;;;;;;1.57;0.40;;;17.60;99.90;;;;;;4869607;29;20460;-87
2021/07/15 09:10:08;;;;;;;0.90;0.40;;;17.70;99.90;;;;;;4868916;29;20971;-88
2021/07/15 09:12:34;;;;;;;0.53;0.40;;;17.80;99.90;;;;;;4880561;29;20521;-88
2021/07/15 09:15:06;;;;;;;3.17;0.40;;;18.10;99.90;;;;;;4867975;29;21088;-88
2021/07/15 09:17:36;;;;;;;0.87;0.43;;;18.20;99.90;;;;;;4887053;29;20224;-88
2021/07/15 09:20:05;;;;;;;0.37;0.37;;;18.40;99.90;;;;;;4852295;29;21956;-88
2021/07/15 09:22:32;;;;;;;1.20;0.37;;;18.60;99.90;;;;;;4864233;29;21248;-88
2021/07/15 09:25:03;;;;;;;1.03;0.57;;;18.50;99.90;;;;;;4862477;29;20569;-88
2021/07/15 09:27:29;;;;;;;0.60;0.50;;;17.90;99.90;;;;;;4865328;29;20552;-88
2021/07/15 09:30:13;;;;;;;0.63;0.40;;;17.90;99.90;;;;;;4865711;29;20884;-88
2021/07/15 09:32:54;;;;;;;0.60;0.40;;;17.80;99.90;;;;;;4867971;29;21014;-88
2021/07/15 09:35:36;;;;;;;0.40;0.40;;;17.70;99.90;;;;;;4882018;29;20476;-88
2021/07/15 09:38:16;;;;;;;0.73;0.37;;;18.10;99.90;;;;;;4871810;29;20829;-89
2021/07/15 09:40:42;;;;;;;0.40;0.40;;;18.30;99.90;;;;;;4870353;29;20465;-88
2021/07/15 09:43:41;;;;;;;0.40;0.40;;;18.00;99.90;;;;;;4883416;29;20472;-88
2021/07/15 09:46:13;;;;;;;1.10;0.43;;;18.10;99.90;;;;;;4882114;29;20457;-89
2021/07/15 09:48:45;;;;;;;0.40;0.40;;;18.30;99.90;;;;;;4887515;29;21420;-89
2021/07/15 09:51:15;;;;;;;0.93;0.53;;;18.50;99.90;;;;;;4882240;29;20449;-89
2021/07/15 09:53:41;;;;;;;0.60;0.40;;;18.60;99.90;;;;;;4884186;29;20453;-90
2021/07/15 09:56:10;;;;;;;2.40;0.50;;;18.50;99.90;;;;;;4886301;29;20469;-89
2021/07/15 09:58:42;;;;;;;0.50;0.50;;;18.60;99.90;;;;;;4869716;29;20489;-89
2021/07/15 10:01:14;;;;;;;3.03;0.37;;;19.00;99.90;;;;;;4870031;29;20855;-89
2021/07/15 10:03:46;;;;;;;0.63;0.20;;;19.40;99.90;;;;;;4880647;29;20560;-88
2021/07/15 10:06:13;;;;;;;1.80;0.57;;;19.90;99.90;;;;;;4868280;29;20469;-89
2021/07/15 10:08:41;;;;;;;0.40;0.40;;;20.00;99.90;;;;;;4864448;29;20795;-88
2021/07/15 10:11:26;;;;;;;0.30;0.30;;;19.60;99.90;;;;;;4870242;29;20509;-88
2021/07/15 10:14:04;;;;;;;0.50;0.40;;;19.80;99.90;;;;;;4863676;29;20452;-91
2021/07/15 10:16:47;;;;;;;0.50;0.50;;;19.50;99.90;;;;;;4870441;29;20984;-89
2021/07/15 10:19:18;;;;;;;0.73;0.60;;;19.70;99.90;;;;;;4866366;29;20832;-92
2021/07/15 10:21:44;;;;;;;0.40;0.40;;;20.10;99.90;;;;;;4867104;29;20457;-90
2021/07/15 10:24:21;;;;;;;1.13;0.60;;;20.40;99.90;;;;;;4867879;29;20960;-90
2021/07/15 10:26:49;;;;;;;1.87;0.50;;;20.80;99.90;;;;;;4869581;29;20212;-90
2021/07/15 10:29:17;;;;;;;0.70;0.60;;;21.30;99.90;;;;;;4867410;29;20449;-88
2021/07/15 10:31:49;;;;;;;0.77;0.77;;;22.00;99.90;;;;;;4885655;29;20502;-89
2021/07/15 10:47:27;;;;;;;1.98;0.80;;;20.90;99.90;;;;;;6304568;22;1303803;-88
2021/07/15 10:49:56;;;;;;;0.93;0.93;;;21.50;99.90;;;;;;6248255;22;20173;-89
2021/07/15 10:52:24;;;;;;;0.50;0.50;;;21.90;99.90;;;;;;6222940;22;20965;-89
2021/07/15 10:54:56;;;;;;;0.77;0.70;;;21.60;99.90;;;;;;6248273;22;20391;-89
2021/07/15 10:57:25;;;;;;;2.07;1.03;;;21.60;99.90;;;;;;6248648;22;20454;-90
2021/07/15 10:59:51;;;;;;;4.43;0.90;;;21.50;99.90;;;;;;6248080;22;20384;-89
2021/07/15 11:02:32;;;;;;;1.63;0.90;;;21.10;99.90;;;;;;6248985;22;20475;-90
2021/07/15 11:05:01;;;;;;;2.07;0.80;;;21.10;99.90;;;;;;6274924;22;20758;-89
2021/07/15 11:07:34;;;;;;;1.20;1.10;;;21.30;99.90;;;;;;6248043;22;20854;-89
2021/07/15 11:10:33;;;;;;;2.40;1.17;;;20.50;99.90;;;;;;6248450;22;20479;-88
2021/07/15 11:13:19;;;;;;;1.70;0.70;;;20.40;99.90;;;;;;6182761;22;20436;-91
2021/07/15 11:15:58;;;;;;;3.67;0.70;;;20.50;99.90;;;;;;6247866;22;20388;-90
2021/07/15 11:19:00;;;;;;;1.00;0.90;;;21.10;99.90;;;;;;6248216;22;20404;-89
2021/07/15 11:21:26;;;;;;;1.63;0.70;;;20.10;99.90;;;;;;6247067;22;20601;-88
2021/07/15 11:24:24;;;;;;;0.77;0.77;;;20.00;99.90;;;;;;6246060;22;20840;-89
2021/07/15 11:26:50;;;;;;;0.57;0.50;;;20.30;99.90;;;;;;6247748;22;20185;-89
2021/07/15 11:29:47;;;;;;;0.60;0.50;;;20.00;99.90;;;;;;6249526;22;20389;-90
2021/07/15 11:32:25;;;;;;;0.43;0.43;;;19.40;99.90;;;;;;6196715;22;20256;-87
2021/07/15 11:34:53;;;;;;;0.60;0.60;;;19.20;99.90;;;;;;6223226;22;20432;-89
2021/07/15 11:37:50;;;;;;;1.27;0.43;;;19.00;99.90;;;;;;6246551;22;20479;-88
2021/07/15 11:40:51;;;;;;;0.60;0.60;;;18.70;99.90;;;;;;6248598;22;20929;-88
2021/07/15 11:43:31;;;;;;;2.60;0.67;;;18.70;99.90;;;;;;6189398;22;20806;-88
2021/07/15 11:46:29;;;;;;;1.20;0.60;;;19.00;99.90;;;;;;6239070;22;20403;-88
2021/07/15 11:48:58;;;;;;;0.97;0.60;;;19.20;99.90;;;;;;6233908;22;20412;-90
2021/07/15 11:51:32;;;;;;;0.50;0.50;;;19.30;99.90;;;;;;6240461;22;20400;-90
2021/07/15 11:54:17;;;;;;;1.03;0.50;;;19.70;99.90;;;;;;6259262;22;20447;-89
2021/07/15 11:56:48;;;;;;;1.10;0.70;;;20.10;99.90;;;;;;6238465;22;20741;-89
2021/07/15 11:59:46;;;;;;;0.50;0.50;;;19.90;99.90;;;;;;6240719;22;20420;-90
2021/07/15 12:02:37;;;;;;;1.37;0.80;;;19.80;99.90;;;;;;6239401;22;20535;-87
2021/07/15 12:05:08;;;;;;;0.60;0.47;;;20.20;99.90;;;;;;6238425;22;20389;-91
2021/07/15 12:07:38;;;;;;;0.87;0.40;;;20.00;99.90;;;;;;6236254;22;20447;-89
2021/07/15 12:10:12;;;;;;;0.50;0.40;;;20.80;99.90;;;;;;6239193;22;20399;-91
2021/07/15 12:12:51;;;;;;;0.40;0.40;;;21.50;99.90;;;;;;6265986;22;20436;-91
2021/07/15 12:15:27;;;;;;;1.77;0.57;;;22.10;99.90;;;;;;6238102;22;20401;-89
2021/07/15 12:17:58;;;;;;;0.50;0.50;;;22.00;99.90;;;;;;6239603;22;20495;-91
2021/07/15 12:20:48;;;;;;;1.80;0.60;;;21.50;99.90;;;;;;6240904;22;20389;-89
2021/07/15 12:23:20;;;;;;;1.63;0.67;;;20.80;99.90;;;;;;6183113;22;20455;-88
2021/07/15 12:25:51;;;;;;;2.53;0.63;;;20.10;99.90;;;;;;6239622;22;20389;-89
2021/07/15 12:28:20;;;;;;;0.90;0.70;;;19.90;99.90;;;;;;6215006;22;20397;-90
2021/07/15 12:30:50;;;;;;;1.70;0.80;;;20.00;99.90;;;;;;6239676;22;20396;-88
2021/07/15 12:33:17;;;;;;;0.90;0.70;;;20.30;99.90;;;;;;6238706;22;20448;-88
2021/07/15 12:35:48;;;;;;;0.70;0.70;;;20.00;99.90;;;;;;6237953;22;20397;-87
2021/07/15 12:38:32;;;;;;;2.73;0.60;;;19.80;99.90;;;;;;6239407;22;20735;-87
2021/07/15 12:41:09;;;;;;;1.13;0.60;;;20.10;99.90;;;;;;6265598;22;20502;-89
2021/07/15 12:44:09;;;;;;;1.37;1.27;;;20.10;99.90;;;;;;6236053;22;20718;-89
2021/07/15 12:46:38;;;;;;;0.57;0.57;;;19.70;99.90;;;;;;6237265;22;20759;-91
2021/07/15 12:49:16;;;;;;;0.80;0.80;;;19.60;99.90;;;;;;6231290;23;20827;-93
2021/07/15 12:51:49;;;;;;;0.90;0.70;;;19.90;99.90;;;;;;6225722;23;20488;-91
2021/07/15 12:54:37;;;;;;;0.70;0.70;;;20.20;99.90;;;;;;6229969;23;20451;-93
2021/07/15 12:57:06;;;;;;;0.67;0.67;;;20.60;99.90;;;;;;6233614;23;20717;-91
2021/07/15 12:59:32;;;;;;;0.97;0.80;;;20.80;99.90;;;;;;6231544;23;20431;-95
2021/07/15 13:02:07;;;;;;;0.90;0.77;;;20.90;99.90;;;;;;6232454;23;20378;-90
2021/07/15 13:04:34;;;;;;;0.60;0.60;;;20.60;99.90;;;;;;6231273;22;20389;-90
2021/07/15 13:07:10;;;;;;;1.00;0.93;;;20.40;99.90;;;;;;6230346;23;20386;-91
2021/07/15 13:09:45;;;;;;;1.30;0.73;;;20.60;99.90;;;;;;6230636;23;20412;-90
2021/07/15 13:15:06;;;;;;;0.73;0.50;;;20.50;99.90;;;;;;6231223;23;20385;-89
2021/07/15 13:17:33;;;;;;;1.40;0.80;;;20.60;99.90;;;;;;6205637;22;20402;-89
2021/07/15 13:20:21;;;;;;;1.40;0.70;;;20.30;99.90;;;;;;6230104;22;20436;-90
2021/07/15 13:22:53;;;;;;;1.37;0.60;;;20.00;99.90;;;;;;6232610;23;20465;-89
2021/07/15 13:25:22;;;;;;;0.50;0.50;;;20.10;99.90;;;;;;6229324;23;20398;-92
2021/07/15 13:28:04;;;;;;;1.57;0.60;;;20.50;99.90;;;;;;6232631;22;20385;-92
2021/07/15 13:30:30;;;;;;;0.50;0.50;;;20.70;99.90;;;;;;6230604;23;20850;-94
2021/07/15 13:32:56;;;;;;;0.60;0.60;;;20.90;99.90;;;;;;6230628;23;20834;-90
2021/07/15 13:35:23;;;;;;;0.53;0.53;;;20.90;99.90;;;;;;6232455;23;20967;-89
2021/07/15 13:37:50;;;;;;;0.60;0.60;;;20.90;99.90;;;;;;6233005;23;20158;-89
2021/07/15 13:40:25;;;;;;;1.37;0.80;;;20.70;99.90;;;;;;6233629;23;20409;-90